Time;durP1;ratioP1;P1;durP2;ratioP2;P2;SDS_P1;SDS_P2;PMS_P1;PMS_P2;Temp;Humidity;BMP_temperature;BMP_pressure;BME280_temperature;BME280_humidity;BME280_pressure;Samples;Min_cycle;Max_cycle;Signal;HPM_P1;HPM_P2
2021/10/09 00:02:10;;;;;;;30.73;24.40;;;10.00;99.90;;;;;;5011869;28;20441;-66
2021/10/09 00:04:37;;;;;;;29.35;25.92;;;9.90;99.90;;;;;;4999254;28;20058;-66
2021/10/09 00:07:04;;;;;;;39.22;25.48;;;9.90;99.90;;;;;;5003960;28;20092;-65
2021/10/09 00:09:31;;;;;;;30.00;24.98;;;9.90;99.90;;;;;;5000691;28;20456;-67
2021/10/09 00:11:58;;;;;;;34.65;27.20;;;9.90;99.90;;;;;;5002669;28;20042;-69
2021/10/09 00:14:25;;;;;;;31.23;24.60;;;9.90;99.90;;;;;;5000885;28;20471;-66
2021/10/09 00:16:51;;;;;;;32.28;24.58;;;9.90;99.90;;;;;;5004050;28;20438;-66
2021/10/09 00:19:19;;;;;;;32.97;24.98;;;9.90;99.90;;;;;;4998505;28;20069;-67
2021/10/09 00:21:46;;;;;;;39.55;27.98;;;9.80;99.90;;;;;;5006645;28;20037;-66
2021/10/09 00:24:16;;;;;;;34.53;24.92;;;9.80;99.90;;;;;;5006956;28;20494;-65
2021/10/09 00:26:43;;;;;;;36.70;25.02;;;9.80;99.90;;;;;;4999987;28;20096;-67
2021/10/09 00:29:10;;;;;;;33.92;26.05;;;9.80;99.90;;;;;;4982525;28;20494;-65
2021/10/09 00:31:38;;;;;;;41.88;27.27;;;9.80;99.90;;;;;;5002844;28;20107;-65
2021/10/09 00:34:05;;;;;;;36.42;25.95;;;9.80;99.90;;;;;;4994648;28;20049;-64
2021/10/09 00:36:32;;;;;;;32.20;25.88;;;9.80;99.90;;;;;;5006269;28;20094;-65
2021/10/09 00:38:59;;;;;;;34.55;28.38;;;9.80;99.90;;;;;;5007457;28;20464;-65
2021/10/09 00:41:26;;;;;;;32.20;25.95;;;9.80;99.90;;;;;;4991010;28;20107;-67
2021/10/09 00:43:54;;;;;;;41.45;26.85;;;9.80;99.90;;;;;;5005659;28;20042;-65
2021/10/09 00:46:21;;;;;;;38.17;26.60;;;9.80;99.90;;;;;;4988906;28;20490;-65
2021/10/09 00:48:48;;;;;;;34.88;25.90;;;9.80;99.90;;;;;;5005932;28;20041;-66
2021/10/09 00:51:15;;;;;;;31.75;26.92;;;9.80;99.90;;;;;;5012082;28;20037;-66
2021/10/09 00:53:45;;;;;;;38.80;26.90;;;9.80;99.90;;;;;;5004777;28;20692;-65
2021/10/09 00:56:16;;;;;;;32.97;25.55;;;9.80;99.90;;;;;;4987444;28;20046;-65
2021/10/09 00:58:45;;;;;;;37.80;25.92;;;9.80;99.90;;;;;;4987168;28;20034;-69
2021/10/09 01:01:12;;;;;;;39.50;27.60;;;9.90;99.90;;;;;;5004612;28;20041;-66
2021/10/09 01:03:39;;;;;;;38.53;29.52;;;9.80;99.90;;;;;;5004932;28;20073;-65
2021/10/09 01:06:06;;;;;;;36.28;27.75;;;9.90;99.90;;;;;;5002101;28;20038;-65
2021/10/09 01:08:33;;;;;;;37.85;27.90;;;9.90;99.90;;;;;;4989511;28;20065;-65
2021/10/09 01:11:01;;;;;;;35.47;27.38;;;9.90;99.90;;;;;;5002456;28;20137;-65
2021/10/09 01:13:28;;;;;;;34.55;26.75;;;9.90;99.90;;;;;;5004214;28;20050;-67
2021/10/09 01:15:55;;;;;;;31.73;26.55;;;9.90;99.90;;;;;;4986603;28;20903;-65
2021/10/09 01:18:22;;;;;;;41.65;27.80;;;9.90;99.90;;;;;;5006717;28;20050;-65
2021/10/09 01:20:55;;;;;;;34.67;24.75;;;10.00;99.90;;;;;;5001562;28;20089;-65
2021/10/09 01:23:29;;;;;;;37.30;26.83;;;9.90;99.90;;;;;;4990103;28;20062;-65
2021/10/09 01:25:57;;;;;;;30.50;26.23;;;9.90;99.90;;;;;;5003670;28;20387;-65
2021/10/09 01:28:25;;;;;;;43.03;29.63;;;9.90;99.90;;;;;;4986140;28;20046;-64
2021/10/09 01:30:55;;;;;;;36.08;25.73;;;10.00;99.90;;;;;;5004209;28;20141;-65
2021/10/09 01:33:24;;;;;;;41.83;27.10;;;10.00;99.90;;;;;;4988255;28;20452;-68
2021/10/09 01:35:54;;;;;;;39.40;28.42;;;10.00;99.90;;;;;;5008042;28;20175;-65
2021/10/09 01:38:28;;;;;;;40.28;29.02;;;10.00;99.90;;;;;;4985016;28;20236;-66
2021/10/09 01:40:57;;;;;;;44.72;28.77;;;10.00;99.90;;;;;;5006414;28;20128;-66
2021/10/09 01:43:25;;;;;;;37.67;30.23;;;10.00;99.90;;;;;;4984251;28;20083;-65
2021/10/09 01:45:53;;;;;;;32.78;27.30;;;10.00;99.90;;;;;;5006759;28;20072;-66
2021/10/09 01:48:32;;;;;;;37.05;27.48;;;10.00;99.90;;;;;;4986314;28;20042;-66
2021/10/09 01:51:02;;;;;;;35.45;27.00;;;10.00;99.90;;;;;;4986168;28;20050;-65
2021/10/09 01:53:29;;;;;;;49.00;29.08;;;10.00;99.90;;;;;;5004276;28;20408;-65
2021/10/09 01:55:56;;;;;;;36.83;26.67;;;10.00;99.90;;;;;;4987603;28;20075;-67
2021/10/09 01:58:23;;;;;;;30.38;24.67;;;10.00;99.90;;;;;;5003432;28;20034;-65
2021/10/09 02:00:51;;;;;;;36.45;26.38;;;10.00;99.90;;;;;;5002382;28;20058;-66
2021/10/09 02:03:20;;;;;;;41.17;25.75;;;9.90;99.90;;;;;;4988135;28;20041;-66
2021/10/09 02:05:48;;;;;;;36.28;25.10;;;10.00;99.90;;;;;;4998018;28;20042;-65
2021/10/09 02:08:16;;;;;;;38.20;28.45;;;10.00;99.90;;;;;;4987772;28;20447;-69
2021/10/09 02:10:49;;;;;;;36.70;27.20;;;9.90;99.90;;;;;;4985029;28;20453;-65
2021/10/09 02:13:22;;;;;;;34.22;26.20;;;10.00;99.90;;;;;;4998446;28;20672;-66
2021/10/09 02:26:26;;;;;;;33.95;24.10;;;10.00;99.90;;;;;;4989377;28;20034;-65
2021/10/09 02:28:55;;;;;;;29.83;24.60;;;10.00;99.90;;;;;;4985503;28;20037;-65
2021/10/09 02:31:22;;;;;;;32.75;23.83;;;10.00;99.90;;;;;;5006131;28;20531;-65
2021/10/09 02:33:50;;;;;;;34.08;24.08;;;10.00;99.90;;;;;;4984189;28;20092;-66
2021/10/09 02:36:16;;;;;;;35.83;20.58;;;9.90;99.90;;;;;;5019477;28;20046;-65
2021/10/09 02:38:45;;;;;;;29.90;21.70;;;10.00;99.90;;;;;;4986721;28;20044;-66
2021/10/09 02:41:14;;;;;;;31.40;22.25;;;9.90;99.90;;;;;;4985783;28;20058;-65
2021/10/09 02:43:41;;;;;;;31.00;20.55;;;9.90;99.90;;;;;;4985282;28;20041;-65
2021/10/09 02:46:08;;;;;;;26.38;20.63;;;9.90;99.90;;;;;;4996923;28;20061;-66
2021/10/09 02:48:40;;;;;;;;;;;9.90;99.90;;;;;;4980995;28;20134;-66
2021/10/09 02:51:07;;;;;;;38.20;22.42;;;9.90;99.90;;;;;;4980353;28;19971;-66
2021/10/09 02:53:34;;;;;;;33.38;22.92;;;9.90;99.90;;;;;;5002981;28;20341;-65
2021/10/09 02:56:01;;;;;;;33.22;23.88;;;9.90;99.90;;;;;;4991201;28;20065;-66
2021/10/09 02:58:32;;;;;;;31.50;21.55;;;9.90;99.90;;;;;;4998555;28;20038;-67
2021/10/09 03:01:00;;;;;;;29.00;23.33;;;9.90;99.90;;;;;;4976907;28;20109;-66
2021/10/09 03:03:27;;;;;;;30.17;23.98;;;9.90;99.90;;;;;;5001722;28;20048;-67
2021/10/09 03:05:54;;;;;;;30.05;21.40;;;9.80;99.90;;;;;;4983388;28;20074;-66
2021/10/09 03:08:21;;;;;;;28.58;21.80;;;9.80;99.90;;;;;;4999914;28;20041;-67
2021/10/09 03:10:49;;;;;;;37.72;23.10;;;9.80;99.90;;;;;;4992955;28;20084;-65
2021/10/09 03:13:16;;;;;;;26.17;21.95;;;9.80;99.90;;;;;;4987246;28;20050;-68
2021/10/09 03:15:43;;;;;;;26.92;18.95;;;9.80;99.90;;;;;;4998997;28;20042;-66
2021/10/09 03:18:10;;;;;;;28.45;22.27;;;9.80;99.90;;;;;;4999095;28;20037;-66
2021/10/09 03:20:37;;;;;;;28.48;20.70;;;9.80;99.90;;;;;;5000015;28;20037;-66
2021/10/09 03:23:08;;;;;;;;;;;9.80;99.90;;;;;;4985903;28;20050;-66
2021/10/09 03:25:35;;;;;;;29.92;20.35;;;9.80;99.90;;;;;;5002526;28;20474;-66
2021/10/09 03:28:03;;;;;;;30.20;20.50;;;9.80;99.90;;;;;;4981156;28;20495;-69
2021/10/09 03:30:30;;;;;;;23.23;18.60;;;9.80;99.90;;;;;;5005600;28;20034;-66
2021/10/09 03:32:57;;;;;;;26.77;20.48;;;9.80;99.90;;;;;;4987483;28;20049;-66
2021/10/09 03:35:24;;;;;;;29.30;18.60;;;9.80;99.90;;;;;;4985670;28;20133;-66
2021/10/09 03:37:52;;;;;;;24.08;18.45;;;9.70;99.90;;;;;;4999123;28;20041;-67
2021/10/09 03:40:23;;;;;;;25.95;19.95;;;9.70;99.90;;;;;;5004956;28;20045;-66
2021/10/09 03:53:35;;;;;;;29.60;22.65;;;9.70;99.90;;;;;;5010478;28;20048;-67
2021/10/09 03:56:04;;;;;;;31.58;21.45;;;9.70;99.90;;;;;;4987518;28;20060;-65
2021/10/09 03:58:37;;;;;;;30.52;21.50;;;9.70;99.90;;;;;;5010662;28;20049;-69
2021/10/09 04:01:04;;;;;;;26.25;20.52;;;9.70;99.90;;;;;;4982593;28;20096;-66
2021/10/09 04:03:31;;;;;;;26.80;20.08;;;9.60;99.90;;;;;;4999810;28;20113;-65
2021/10/09 04:05:59;;;;;;;27.60;20.98;;;9.60;99.90;;;;;;4983540;28;20054;-66
2021/10/09 04:08:26;;;;;;;33.65;21.17;;;9.60;99.90;;;;;;4981305;28;20384;-67
2021/10/09 04:10:55;;;;;;;37.10;24.05;;;9.60;99.90;;;;;;4999295;28;20483;-66
2021/10/09 04:13:22;;;;;;;30.33;23.70;;;9.60;99.90;;;;;;5000217;28;20065;-66
2021/10/09 04:15:49;;;;;;;29.45;23.33;;;9.60;99.90;;;;;;4983312;28;20399;-66
2021/10/09 04:18:17;;;;;;;28.08;21.02;;;9.60;99.90;;;;;;4988236;28;20103;-66
2021/10/09 04:20:44;;;;;;;33.20;23.20;;;9.60;99.90;;;;;;4990364;28;20034;-66
2021/10/09 04:23:12;;;;;;;30.17;20.98;;;9.60;99.90;;;;;;4992992;28;20070;-66
2021/10/09 04:25:39;;;;;;;28.92;22.77;;;9.60;99.90;;;;;;4991556;28;20069;-65
2021/10/09 04:28:06;;;;;;;32.83;21.48;;;9.50;99.90;;;;;;5002822;28;20061;-66
2021/10/09 04:30:34;;;;;;;33.17;22.65;;;9.50;99.90;;;;;;5006905;28;20049;-66
2021/10/09 04:33:01;;;;;;;26.50;22.15;;;9.50;99.90;;;;;;4989125;28;20039;-66
2021/10/09 04:35:29;;;;;;;30.85;22.48;;;9.50;99.90;;;;;;4991947;28;20123;-65
2021/10/09 04:37:57;;;;;;;29.73;23.05;;;9.60;99.90;;;;;;4989178;28;20062;-67
2021/10/09 04:40:26;;;;;;;32.88;21.20;;;9.60;99.90;;;;;;5004281;28;20040;-66
2021/10/09 04:42:53;;;;;;;30.90;23.45;;;9.50;99.90;;;;;;5004611;28;20061;-66
2021/10/09 04:45:20;;;;;;;26.17;22.15;;;9.50;99.90;;;;;;5010646;28;20121;-65
2021/10/09 04:47:49;;;;;;;37.63;22.55;;;9.50;99.90;;;;;;4984877;28;20088;-66
2021/10/09 04:50:18;;;;;;;27.77;21.80;;;9.50;99.90;;;;;;5002982;28;20133;-66
2021/10/09 04:52:45;;;;;;;27.95;21.58;;;9.50;99.90;;;;;;5007940;28;20136;-66
2021/10/09 04:55:13;;;;;;;28.75;25.35;;;9.50;99.90;;;;;;5002975;28;20057;-71
2021/10/09 04:57:42;;;;;;;29.67;22.45;;;9.50;99.90;;;;;;4987638;28;20052;-66
2021/10/09 05:00:10;;;;;;;35.60;24.45;;;9.50;99.90;;;;;;5000183;28;20123;-66
2021/10/09 05:02:38;;;;;;;33.40;23.77;;;9.50;99.90;;;;;;5005729;28;20061;-67
2021/10/09 05:05:06;;;;;;;36.15;26.30;;;9.50;99.90;;;;;;4987877;28;20038;-67
2021/10/09 05:07:36;;;;;;;33.60;24.27;;;9.50;99.90;;;;;;4989888;28;20100;-66
2021/10/09 05:10:04;;;;;;;36.13;24.55;;;9.50;99.90;;;;;;5000032;28;20505;-65
2021/10/09 05:12:33;;;;;;;34.60;24.73;;;9.50;99.90;;;;;;5004166;28;20156;-66
2021/10/09 05:15:00;;;;;;;32.83;24.48;;;9.50;99.90;;;;;;4995053;28;20303;-69
2021/10/09 05:17:27;;;;;;;33.83;22.55;;;9.50;99.90;;;;;;4998177;28;20053;-66
2021/10/09 05:19:54;;;;;;;43.45;26.83;;;9.50;99.90;;;;;;4999982;28;20065;-66
2021/10/09 05:22:21;;;;;;;33.47;25.08;;;9.50;99.90;;;;;;5000660;28;20117;-66
2021/10/09 05:24:53;;;;;;;37.17;27.30;;;9.50;99.90;;;;;;4987257;28;20105;-67
2021/10/09 05:27:23;;;;;;;39.75;25.33;;;9.50;99.90;;;;;;4996223;28;20078;-65
2021/10/09 05:29:51;;;;;;;40.08;28.77;;;9.50;99.90;;;;;;5000124;28;20115;-66
2021/10/09 05:32:24;;;;;;;35.78;26.70;;;9.50;99.90;;;;;;4992944;28;20038;-67
2021/10/09 05:34:51;;;;;;;30.70;24.25;;;9.50;99.90;;;;;;4988591;28;20077;-68
2021/10/09 05:37:18;;;;;;;33.80;25.27;;;9.40;99.90;;;;;;5000745;28;20097;-69
2021/10/09 05:39:46;;;;;;;34.92;24.85;;;9.40;99.90;;;;;;5003794;28;20049;-65
2021/10/09 05:42:13;;;;;;;32.38;24.55;;;9.40;99.90;;;;;;5001878;28;20042;-66
2021/10/09 05:44:40;;;;;;;32.63;26.73;;;9.40;99.90;;;;;;5006933;28;20042;-69
2021/10/09 05:47:07;;;;;;;31.98;25.42;;;9.40;99.90;;;;;;4983413;28;20046;-67
2021/10/09 05:49:36;;;;;;;37.05;24.83;;;9.40;99.90;;;;;;5000350;28;20147;-67
2021/10/09 06:47:20;;;;;;;45.95;31.65;;;9.80;99.90;;;;;;4996579;28;20492;-65
2021/10/09 07:00:35;;;;;;;43.72;30.50;;;10.00;99.90;;;;;;4982141;28;20053;-67
2021/10/09 07:03:02;;;;;;;43.78;29.45;;;10.10;99.90;;;;;;5004153;28;20412;-66
2021/10/09 07:05:33;;;;;;;40.25;29.05;;;10.20;99.90;;;;;;4984947;28;20458;-68
2021/10/09 07:08:16;;;;;;;46.88;31.33;;;10.20;99.90;;;;;;4973333;28;20044;-67
2021/10/09 07:11:00;;;;;;;42.15;29.27;;;10.30;99.90;;;;;;4981783;28;20038;-66
2021/10/09 07:13:27;;;;;;;43.67;30.05;;;10.30;99.90;;;;;;4983252;28;20045;-67
2021/10/09 07:15:54;;;;;;;40.03;31.70;;;10.30;99.90;;;;;;5000023;28;20038;-66
2021/10/09 07:18:23;;;;;;;38.60;29.17;;;10.40;99.90;;;;;;4988956;28;20053;-66
2021/10/09 07:20:50;;;;;;;44.33;30.42;;;10.40;99.90;;;;;;5000763;28;20053;-67
2021/10/09 07:23:17;;;;;;;43.00;29.38;;;10.40;99.90;;;;;;4984679;28;20067;-66
2021/10/09 07:25:44;;;;;;;40.80;32.10;;;10.50;99.90;;;;;;5005665;28;20049;-68
2021/10/09 07:28:11;;;;;;;43.55;29.10;;;10.50;99.90;;;;;;4999926;28;20047;-65
2021/10/09 07:30:42;;;;;;;42.75;29.08;;;10.50;99.90;;;;;;5002012;28;20406;-65
2021/10/09 07:33:10;;;;;;;35.30;26.42;;;10.60;99.90;;;;;;5003694;28;20046;-67
2021/10/09 07:35:38;;;;;;;34.78;26.65;;;10.60;99.90;;;;;;5002812;28;20085;-65
2021/10/09 07:38:05;;;;;;;44.03;30.05;;;10.70;99.90;;;;;;4985323;28;20491;-65
2021/10/09 07:40:33;;;;;;;37.40;27.98;;;10.70;99.90;;;;;;5002967;28;20044;-65
2021/10/09 07:43:00;;;;;;;37.47;26.63;;;10.70;99.90;;;;;;5002583;28;20050;-65
2021/10/09 07:45:27;;;;;;;36.53;26.65;;;10.80;99.90;;;;;;5003117;28;20081;-66
2021/10/09 07:47:54;;;;;;;35.40;25.63;;;10.80;99.90;;;;;;5003540;28;20050;-66
2021/10/09 07:50:21;;;;;;;36.72;24.08;;;10.90;99.90;;;;;;5002785;28;20048;-65
2021/10/09 07:52:48;;;;;;;36.28;25.42;;;11.00;99.90;;;;;;5009207;28;20117;-66
2021/10/09 07:55:15;;;;;;;33.80;22.55;;;11.00;99.90;;;;;;5007191;28;20056;-67
2021/10/09 07:57:42;;;;;;;36.78;24.40;;;11.10;99.90;;;;;;5004992;28;20165;-65
2021/10/09 08:00:09;;;;;;;38.95;23.08;;;11.10;99.90;;;;;;5006274;28;20049;-66
2021/10/09 08:02:46;;;;;;;27.92;21.13;;;11.20;99.90;;;;;;5006436;28;20128;-65
2021/10/09 08:05:13;;;;;;;34.95;22.85;;;11.30;99.90;;;;;;5008829;28;20527;-65
2021/10/09 08:07:40;;;;;;;33.30;20.60;;;11.30;99.90;;;;;;5005821;28;20046;-66
2021/10/09 08:10:08;;;;;;;26.10;20.33;;;11.40;99.90;;;;;;5008427;28;20100;-66
2021/10/09 08:12:35;;;;;;;31.80;19.20;;;11.50;99.90;;;;;;5004483;28;20061;-65
2021/10/09 08:15:04;;;;;;;29.30;19.63;;;11.60;99.90;;;;;;5005673;28;20133;-70
2021/10/09 08:17:31;;;;;;;28.27;19.88;;;11.70;99.90;;;;;;5004614;28;20037;-66
2021/10/09 08:19:58;;;;;;;32.75;18.38;;;11.70;99.90;;;;;;5012273;28;20103;-66
2021/10/09 08:22:28;;;;;;;29.80;21.15;;;11.80;99.90;;;;;;5003742;28;20129;-68
2021/10/09 08:25:20;;;;;;;25.45;18.35;;;11.80;99.90;;;;;;4998269;28;20045;-67
2021/10/09 08:36:02;;;;;;;27.73;18.17;;;12.10;99.90;;;;;;5005370;28;20065;-66
2021/10/09 08:41:15;;;;;;;24.52;18.00;;;12.10;99.90;;;;;;5000162;28;20120;-66
2021/10/09 08:43:44;;;;;;;18.40;16.40;;;12.00;99.90;;;;;;5002422;28;20112;-66
2021/10/09 08:46:11;;;;;;;21.65;15.63;;;12.00;99.90;;;;;;5001209;28;20668;-68
2021/10/09 08:48:42;;;;;;;19.08;15.13;;;12.10;99.90;;;;;;4988753;28;20088;-69
2021/10/09 08:51:09;;;;;;;21.83;15.10;;;12.10;99.90;;;;;;5001285;28;20123;-66
2021/10/09 08:53:46;;;;;;;20.13;14.63;;;12.10;99.90;;;;;;4999249;28;20104;-67
2021/10/09 08:56:48;;;;;;;21.42;16.65;;;12.20;99.90;;;;;;5002767;28;20064;-66
2021/10/09 08:59:30;;;;;;;19.50;17.40;;;12.40;99.90;;;;;;4941555;28;20186;-70
2021/10/09 09:02:09;;;;;;;17.10;14.40;;;12.50;99.90;;;;;;4992623;28;20513;-67
2021/10/09 09:04:46;;;;;;;22.80;16.00;;;12.60;99.90;;;;;;5003990;28;20084;-67
2021/10/09 09:40:06;;;;;;;12.52;9.75;;;13.50;99.90;;;;;;4967942;28;20049;-69
2021/10/09 09:42:52;;;;;;;13.43;9.95;;;13.50;99.90;;;;;;4966410;28;20080;-67
2021/10/09 09:45:26;;;;;;;12.07;9.13;;;13.50;99.90;;;;;;4961009;28;20353;-70
2021/10/09 09:47:59;;;;;;;12.63;9.43;;;13.50;99.90;;;;;;4946622;28;20598;-70
2021/10/09 09:50:28;;;;;;;16.73;10.60;;;13.60;99.90;;;;;;4969835;28;20065;-66
2021/10/09 09:52:58;;;;;;;12.95;10.07;;;13.60;99.90;;;;;;4967605;28;20137;-68
2021/10/09 09:55:26;;;;;;;9.07;7.80;;;13.60;99.90;;;;;;4967409;28;20049;-72
2021/10/09 09:58:14;;;;;;;8.68;7.75;;;13.70;99.90;;;;;;4976963;28;20143;-67
2021/10/09 10:00:41;;;;;;;9.68;8.63;;;13.80;99.90;;;;;;5002128;28;20077;-67
2021/10/09 10:03:09;;;;;;;11.55;9.43;;;13.80;99.90;;;;;;4999568;28;20062;-66
2021/10/09 10:05:36;;;;;;;12.90;8.88;;;13.90;99.90;;;;;;4999901;28;20286;-66
2021/10/09 10:08:03;;;;;;;11.18;10.07;;;13.90;99.90;;;;;;4996637;28;20140;-66
2021/10/09 10:10:30;;;;;;;12.80;8.77;;;13.90;99.90;;;;;;5000990;28;20125;-69
2021/10/09 10:12:59;;;;;;;12.75;10.23;;;14.00;99.90;;;;;;4997483;28;20081;-66
2021/10/09 10:15:28;;;;;;;13.68;11.75;;;14.00;99.90;;;;;;5000114;28;20112;-66
2021/10/09 10:17:56;;;;;;;15.25;10.98;;;14.00;99.90;;;;;;5000268;28;20128;-67
2021/10/09 10:20:50;;;;;;;12.32;10.73;;;14.00;99.90;;;;;;5000232;28;20161;-67
2021/10/09 10:23:36;;;;;;;13.02;10.23;;;14.00;99.90;;;;;;4986357;28;20038;-67
2021/10/09 10:26:21;;;;;;;10.82;8.80;;;14.00;99.90;;;;;;5001056;28;20357;-66
2021/10/09 10:29:08;;;;;;;9.65;8.75;;;14.10;99.90;;;;;;5002980;28;20172;-66
2021/10/09 10:31:36;;;;;;;10.63;9.40;;;14.00;99.90;;;;;;4997459;28;20143;-67
2021/10/09 10:34:22;;;;;;;13.27;10.60;;;14.10;99.90;;;;;;5002897;28;20042;-67
2021/10/09 10:36:50;;;;;;;14.57;10.57;;;14.10;99.90;;;;;;5003232;28;20045;-66
2021/10/09 10:39:23;;;;;;;14.90;9.75;;;14.20;99.90;;;;;;5002010;28;20058;-70
2021/10/09 10:42:01;;;;;;;12.07;9.63;;;14.10;99.90;;;;;;5002240;28;20065;-66
2021/10/09 10:47:44;;;;;;;11.30;10.20;;;14.20;99.90;;;;;;5004965;28;20041;-68
2021/10/09 10:50:41;;;;;;;10.88;9.65;;;14.20;99.90;;;;;;4998899;28;20530;-67
2021/10/09 10:53:13;;;;;;;15.82;10.55;;;14.20;99.90;;;;;;5000650;28;20061;-66
2021/10/09 10:56:08;;;;;;;14.90;11.38;;;14.30;99.90;;;;;;5006017;28;20041;-67
2021/10/09 10:58:37;;;;;;;11.55;10.20;;;14.30;99.90;;;;;;4995590;28;20133;-66
2021/10/09 11:01:24;;;;;;;16.35;10.50;;;14.40;99.90;;;;;;5005965;28;20077;-70
2021/10/09 11:03:56;;;;;;;15.43;11.23;;;14.40;99.90;;;;;;5000516;28;20044;-67
2021/10/09 11:06:25;;;;;;;13.10;9.60;;;14.50;99.90;;;;;;4998573;28;20592;-66
2021/10/09 11:08:53;;;;;;;21.98;13.18;;;14.40;99.90;;;;;;5002476;28;20187;-66
2021/10/09 11:11:34;;;;;;;16.15;12.40;;;14.50;99.90;;;;;;5003032;28;20044;-67
2021/10/09 11:14:01;;;;;;;17.55;14.75;;;14.60;99.90;;;;;;5002663;28;20100;-66
2021/10/09 11:16:29;;;;;;;12.15;10.93;;;14.60;99.90;;;;;;4993895;28;20089;-66
2021/10/09 11:18:56;;;;;;;18.05;12.10;;;14.70;99.90;;;;;;5005772;28;20137;-70
2021/10/09 11:21:23;;;;;;;33.15;13.10;;;14.70;99.90;;;;;;4999555;28;20432;-66
2021/10/09 11:23:56;;;;;;;13.68;11.60;;;14.50;99.90;;;;;;4999609;28;20042;-66
2021/10/09 11:26:25;;;;;;;16.25;12.55;;;14.40;99.90;;;;;;5002761;28;20065;-66
2021/10/09 11:29:04;;;;;;;13.43;11.05;;;14.20;99.90;;;;;;4930695;28;20936;-67
2021/10/09 11:31:31;;;;;;;14.73;11.18;;;14.10;99.90;;;;;;973482;28;10002439;-66
2021/10/09 11:34:02;;;;;;;13.90;11.35;;;14.10;99.90;;;;;;5001677;28;20042;-68
2021/10/09 11:36:36;;;;;;;18.05;11.82;;;14.10;99.90;;;;;;5002901;28;20479;-66
2021/10/09 11:39:11;;;;;;;15.60;12.70;;;13.90;99.90;;;;;;5001888;28;20148;-66
2021/10/09 11:41:41;;;;;;;13.02;11.07;;;13.80;99.90;;;;;;5002100;28;20139;-66
2021/10/09 11:44:21;;;;;;;17.88;12.35;;;13.70;99.90;;;;;;4994106;28;20069;-68
2021/10/09 11:55:18;;;;;;;15.05;12.20;;;13.60;99.90;;;;;;4999239;28;20046;-66
2021/10/09 11:57:46;;;;;;;18.08;14.85;;;13.50;99.90;;;;;;4998146;28;20069;-65
2021/10/09 12:00:28;;;;;;;15.05;13.40;;;13.60;99.90;;;;;;4977547;28;20066;-65
2021/10/09 12:03:00;;;;;;;17.58;13.00;;;13.70;99.90;;;;;;4996703;28;20066;-65
2021/10/09 12:05:34;;;;;;;16.20;11.93;;;13.80;99.90;;;;;;4984434;28;20057;-66
2021/10/09 12:11:12;;;;;;;17.33;13.38;;;13.70;99.90;;;;;;4999293;28;20045;-65
2021/10/09 12:13:53;;;;;;;18.73;15.10;;;13.70;99.90;;;;;;4999841;28;20115;-68
2021/10/09 12:16:25;;;;;;;17.10;15.25;;;13.60;99.90;;;;;;4994674;28;20435;-67
2021/10/09 12:18:54;;;;;;;42.30;16.00;;;13.80;99.90;;;;;;4985023;28;20145;-69
2021/10/09 12:21:23;;;;;;;17.90;14.65;;;13.90;99.90;;;;;;5000110;28;20046;-66
2021/10/09 12:23:52;;;;;;;16.05;14.27;;;13.80;99.90;;;;;;4998384;28;20049;-66
2021/10/09 12:26:21;;;;;;;19.75;17.08;;;13.90;99.90;;;;;;4994029;28;20069;-69
2021/10/09 12:29:03;;;;;;;21.58;15.93;;;13.90;99.90;;;;;;5001251;28;20104;-68
2021/10/09 12:31:32;;;;;;;19.63;17.52;;;14.00;99.90;;;;;;5010924;28;20080;-68
2021/10/09 12:33:59;;;;;;;20.98;15.35;;;14.00;99.90;;;;;;4996347;28;20129;-66
2021/10/09 12:36:39;;;;;;;25.45;14.80;;;14.10;99.90;;;;;;4992763;28;20053;-67
2021/10/09 12:39:27;;;;;;;23.15;15.52;;;14.20;99.90;;;;;;5006835;28;20081;-66
2021/10/09 12:41:54;;;;;;;17.15;13.82;;;14.00;99.90;;;;;;4997338;28;20531;-69
2021/10/09 12:44:22;;;;;;;14.80;12.77;;;13.90;99.90;;;;;;4999476;28;20068;-66
2021/10/09 12:46:49;;;;;;;23.98;15.55;;;13.90;99.90;;;;;;5003579;28;20073;-65
2021/10/09 12:49:17;;;;;;;18.55;14.50;;;13.80;99.90;;;;;;5005583;28;20046;-67
2021/10/09 12:51:44;;;;;;;21.30;16.80;;;13.80;99.90;;;;;;4999699;28;20042;-67
2021/10/09 12:54:15;;;;;;;19.67;15.48;;;13.80;99.90;;;;;;5001590;28;20058;-65
2021/10/09 12:56:42;;;;;;;17.95;14.48;;;13.70;99.90;;;;;;5002514;28;20129;-71
2021/10/09 12:59:10;;;;;;;17.58;13.68;;;13.80;99.90;;;;;;4999701;28;20062;-66
2021/10/09 13:01:37;;;;;;;24.15;14.68;;;13.90;99.90;;;;;;5001441;28;20049;-66
2021/10/09 13:04:04;;;;;;;19.65;14.55;;;14.00;99.90;;;;;;4998473;28;20124;-70
2021/10/09 13:06:31;;;;;;;16.73;13.90;;;14.00;99.90;;;;;;5002563;28;20475;-66
2021/10/09 13:08:58;;;;;;;15.18;13.13;;;13.90;99.90;;;;;;5002041;28;20101;-66
2021/10/09 13:11:31;;;;;;;20.45;14.38;;;13.80;99.90;;;;;;4999532;28;20373;-66
2021/10/09 13:13:58;;;;;;;20.02;14.32;;;13.70;99.90;;;;;;4998071;28;20076;-65
2021/10/09 13:16:25;;;;;;;17.85;12.57;;;13.70;99.90;;;;;;4998293;28;20491;-65
2021/10/09 13:18:52;;;;;;;17.27;14.63;;;13.70;99.90;;;;;;5001758;28;20125;-66
2021/10/09 13:21:21;;;;;;;18.83;14.73;;;13.60;99.90;;;;;;5000116;28;20069;-65
2021/10/09 13:23:48;;;;;;;19.50;13.48;;;13.50;99.90;;;;;;5003796;28;20042;-66
2021/10/09 13:26:14;;;;;;;17.45;14.07;;;13.40;99.90;;;;;;5001934;28;20088;-66
2021/10/09 13:28:41;;;;;;;17.77;14.52;;;13.40;99.90;;;;;;4997829;28;20088;-66
2021/10/09 13:31:09;;;;;;;21.23;14.55;;;13.50;99.90;;;;;;5002991;28;20034;-66
2021/10/09 13:33:35;;;;;;;21.75;14.63;;;13.60;99.90;;;;;;4999966;28;20042;-65
2021/10/09 13:36:05;;;;;;;18.05;14.35;;;13.60;99.90;;;;;;5005371;28;20041;-66
2021/10/09 13:38:33;;;;;;;22.55;16.67;;;13.60;99.90;;;;;;5001118;28;20111;-66
2021/10/09 13:41:01;;;;;;;18.35;13.43;;;13.50;99.90;;;;;;5007812;28;20478;-66
2021/10/09 13:43:28;;;;;;;20.40;15.77;;;13.60;99.90;;;;;;5003349;28;20680;-66
2021/10/09 13:45:55;;;;;;;16.75;13.77;;;13.70;99.90;;;;;;4997608;28;20046;-67
2021/10/09 13:48:22;;;;;;;19.00;13.35;;;13.80;99.90;;;;;;5003098;28;20495;-66
2021/10/09 13:50:51;;;;;;;16.33;13.30;;;13.80;99.90;;;;;;5001666;28;20127;-65
2021/10/09 13:53:19;;;;;;;17.13;13.50;;;13.70;99.90;;;;;;4999549;28;20089;-67
2021/10/09 13:55:47;;;;;;;16.92;14.57;;;13.70;99.90;;;;;;4999800;28;20439;-66
2021/10/09 13:58:14;;;;;;;18.92;14.15;;;13.70;99.90;;;;;;4993537;28;20042;-65
2021/10/09 14:00:43;;;;;;;18.55;16.48;;;13.60;99.90;;;;;;5005418;28;20049;-65
2021/10/09 14:03:11;;;;;;;21.33;15.48;;;13.60;99.90;;;;;;4998954;28;20061;-67
2021/10/09 14:05:38;;;;;;;22.42;15.20;;;13.60;99.90;;;;;;4999089;28;20073;-66
2021/10/09 14:08:05;;;;;;;20.25;15.65;;;13.70;99.90;;;;;;4999598;28;20065;-69
2021/10/09 14:10:33;;;;;;;23.85;15.38;;;13.60;99.90;;;;;;4998585;28;20065;-66
2021/10/09 14:13:01;;;;;;;19.45;14.68;;;13.70;99.90;;;;;;5005241;28;20050;-65
2021/10/09 14:15:29;;;;;;;17.17;14.77;;;13.80;99.90;;;;;;5000918;28;20129;-67
2021/10/09 14:17:56;;;;;;;23.98;16.63;;;13.70;99.90;;;;;;4997946;28;20456;-65
2021/10/09 14:20:23;;;;;;;21.35;15.40;;;13.80;99.90;;;;;;5005549;28;20068;-66
2021/10/09 14:22:50;;;;;;;20.13;15.15;;;13.80;99.90;;;;;;5003842;28;20042;-67
2021/10/09 14:25:17;;;;;;;18.88;13.23;;;13.90;99.90;;;;;;5005966;28;20045;-65
2021/10/09 14:27:44;;;;;;;22.95;17.23;;;13.90;99.90;;;;;;5002903;28;20045;-65
2021/10/09 14:30:12;;;;;;;20.20;14.93;;;13.80;99.90;;;;;;4999444;28;20034;-67
2021/10/09 14:32:41;;;;;;;17.52;14.68;;;13.80;99.90;;;;;;5002224;28;20450;-66
2021/10/09 14:35:09;;;;;;;18.35;14.32;;;13.70;99.90;;;;;;4996001;28;20066;-68
2021/10/09 14:37:40;;;;;;;17.13;13.82;;;13.80;99.90;;;;;;4999418;28;20385;-66
2021/10/09 14:40:08;;;;;;;19.60;13.40;;;13.80;99.90;;;;;;4999680;28;20065;-66
2021/10/09 14:42:35;;;;;;;22.60;14.95;;;13.80;99.90;;;;;;5004573;28;20042;-65
2021/10/09 14:45:02;;;;;;;18.77;14.15;;;13.80;99.90;;;;;;5004600;28;20481;-66
2021/10/09 15:20:05;;;;;;;22.83;18.90;;;12.50;99.90;;;;;;4991613;28;20041;-67
2021/10/09 15:22:32;;;;;;;20.40;17.38;;;12.50;99.90;;;;;;5003382;28;20037;-64
2021/10/09 15:25:00;;;;;;;22.88;17.27;;;12.40;99.90;;;;;;4995641;28;20096;-66
2021/10/09 15:27:29;;;;;;;28.63;17.55;;;12.40;99.90;;;;;;5004732;28;20057;-66
2021/10/09 15:29:56;;;;;;;28.33;17.00;;;12.30;99.90;;;;;;4996586;28;20042;-65
2021/10/09 15:32:23;;;;;;;67.43;55.47;;;12.30;99.90;;;;;;5002962;28;20038;-66
2021/10/09 15:34:51;;;;;;;147.98;132.23;;;12.20;99.90;;;;;;5002862;28;20168;-64
2021/10/09 15:37:18;;;;;;;25.15;22.27;;;12.20;99.90;;;;;;5000552;28;20049;-66
2021/10/09 15:39:45;;;;;;;39.80;32.47;;;12.10;99.90;;;;;;4995996;28;20068;-65
2021/10/09 15:42:13;;;;;;;34.67;21.73;;;12.10;99.90;;;;;;5000334;28;20041;-65